sensor_id;sensor_type;location;lat;lon;timestamp;P1;durP1;ratioP1;P2;durP2;ratioP2
48935;SDS011;34745;52.276;10.528;2024-01-30T00:00:33;1.10;;;1.10;;
48935;SDS011;34745;52.276;10.528;2024-01-30T00:03:00;1.30;;;1.30;;
48935;SDS011;34745;52.276;10.528;2024-01-30T00:05:27;1.00;;;1.00;;
48935;SDS011;34745;52.276;10.528;2024-01-30T00:07:54;1.10;;;1.10;;
48935;SDS011;34745;52.276;10.528;2024-01-30T00:10:21;1.03;;;1.00;;
48935;SDS011;34745;52.276;10.528;2024-01-30T00:12:48;1.10;;;1.10;;
48935;SDS011;34745;52.276;10.528;2024-01-30T00:15:16;1.00;;;1.00;;
48935;SDS011;34745;52.276;10.528;2024-01-30T00:17:44;1.10;;;1.10;;
48935;SDS011;34745;52.276;10.528;2024-01-30T00:20:12;1.10;;;1.10;;
48935;SDS011;34745;52.276;10.528;2024-01-30T00:22:39;1.00;;;1.00;;
48935;SDS011;34745;52.276;10.528;2024-01-30T00:25:06;1.10;;;1.10;;
48935;SDS011;34745;52.276;10.528;2024-01-30T00:27:34;1.03;;;1.03;;
48935;SDS011;34745;52.276;10.528;2024-01-30T00:30:01;1.00;;;1.00;;
48935;SDS011;34745;52.276;10.528;2024-01-30T00:32:29;1.20;;;1.20;;
48935;SDS011;34745;52.276;10.528;2024-01-30T00:34:57;1.17;;;1.17;;
48935;SDS011;34745;52.276;10.528;2024-01-30T00:37:24;1.10;;;1.10;;
48935;SDS011;34745;52.276;10.528;2024-01-30T00:39:51;1.17;;;1.17;;
48935;SDS011;34745;52.276;10.528;2024-01-30T00:42:18;1.10;;;1.10;;
48935;SDS011;34745;52.276;10.528;2024-01-30T00:44:46;1.00;;;1.00;;
48935;SDS011;34745;52.276;10.528;2024-01-30T00:47:12;1.50;;;1.50;;
48935;SDS011;34745;52.276;10.528;2024-01-30T00:49:41;2.30;;;2.20;;
48935;SDS011;34745;52.276;10.528;2024-01-30T00:52:08;1.77;;;1.67;;
48935;SDS011;34745;52.276;10.528;2024-01-30T00:54:35;1.20;;;1.20;;
48935;SDS011;34745;52.276;10.528;2024-01-30T00:57:02;0.97;;;0.97;;
48935;SDS011;34745;52.276;10.528;2024-01-30T00:59:30;1.10;;;1.10;;
48935;SDS011;34745;52.276;10.528;2024-01-30T01:01:56;1.00;;;1.00;;
48935;SDS011;34745;52.276;10.528;2024-01-30T01:04:24;1.20;;;1.20;;
48935;SDS011;34745;52.276;10.528;2024-01-30T01:06:52;1.20;;;1.20;;
48935;SDS011;34745;52.276;10.528;2024-01-30T01:09:20;1.30;;;1.13;;
48935;SDS011;34745;52.276;10.528;2024-01-30T01:11:46;1.00;;;1.00;;
48935;SDS011;34745;52.276;10.528;2024-01-30T01:14:14;1.10;;;1.10;;
48935;SDS011;34745;52.276;10.528;2024-01-30T01:16:41;1.10;;;1.10;;
48935;SDS011;34745;52.276;10.528;2024-01-30T01:19:08;1.10;;;1.10;;
48935;SDS011;34745;52.276;10.528;2024-01-30T01:21:35;1.20;;;1.20;;
48935;SDS011;34745;52.276;10.528;2024-01-30T01:24:04;1.13;;;1.13;;
48935;SDS011;34745;52.276;10.528;2024-01-30T01:26:31;1.20;;;1.20;;
48935;SDS011;34745;52.276;10.528;2024-01-30T01:28:58;1.20;;;1.20;;
48935;SDS011;34745;52.276;10.528;2024-01-30T01:31:25;1.10;;;1.10;;
48935;SDS011;34745;52.276;10.528;2024-01-30T01:33:56;1.10;;;1.10;;
48935;SDS011;34745;52.276;10.528;2024-01-30T01:36:23;1.20;;;1.20;;
48935;SDS011;34745;52.276;10.528;2024-01-30T01:38:50;1.10;;;1.10;;
48935;SDS011;34745;52.276;10.528;2024-01-30T01:41:18;1.00;;;1.00;;
48935;SDS011;34745;52.276;10.528;2024-01-30T01:43:45;1.13;;;1.13;;
48935;SDS011;34745;52.276;10.528;2024-01-30T01:46:12;1.10;;;1.10;;
48935;SDS011;34745;52.276;10.528;2024-01-30T01:48:39;1.03;;;1.03;;
48935;SDS011;34745;52.276;10.528;2024-01-30T01:51:09;1.20;;;1.10;;
48935;SDS011;34745;52.276;10.528;2024-01-30T01:53:36;1.30;;;1.30;;
48935;SDS011;34745;52.276;10.528;2024-01-30T01:56:03;1.10;;;1.10;;
48935;SDS011;34745;52.276;10.528;2024-01-30T01:58:33;1.20;;;1.20;;
48935;SDS011;34745;52.276;10.528;2024-01-30T02:01:00;1.37;;;1.30;;
48935;SDS011;34745;52.276;10.528;2024-01-30T02:03:28;1.30;;;1.30;;
48935;SDS011;34745;52.276;10.528;2024-01-30T02:05:56;1.30;;;1.30;;
48935;SDS011;34745;52.276;10.528;2024-01-30T02:08:24;1.30;;;1.30;;
48935;SDS011;34745;52.276;10.528;2024-01-30T02:10:51;1.20;;;1.20;;
48935;SDS011;34745;52.276;10.528;2024-01-30T02:13:18;1.30;;;1.30;;
48935;SDS011;34745;52.276;10.528;2024-01-30T02:15:49;1.20;;;1.20;;
48935;SDS011;34745;52.276;10.528;2024-01-30T02:18:19;1.10;;;1.10;;
48935;SDS011;34745;52.276;10.528;2024-01-30T02:20:47;1.20;;;1.20;;
48935;SDS011;34745;52.276;10.528;2024-01-30T02:23:16;1.10;;;1.10;;
48935;SDS011;34745;52.276;10.528;2024-01-30T02:25:43;1.20;;;1.20;;
48935;SDS011;34745;52.276;10.528;2024-01-30T02:28:13;1.33;;;1.30;;
48935;SDS011;34745;52.276;10.528;2024-01-30T02:30:42;1.20;;;1.20;;
48935;SDS011;34745;52.276;10.528;2024-01-30T02:33:09;1.37;;;1.37;;
48935;SDS011;34745;52.276;10.528;2024-01-30T02:35:36;1.20;;;1.20;;
48935;SDS011;34745;52.276;10.528;2024-01-30T02:38:03;1.33;;;1.33;;
48935;SDS011;34745;52.276;10.528;2024-01-30T02:40:32;1.20;;;1.20;;
48935;SDS011;34745;52.276;10.528;2024-01-30T02:42:59;1.17;;;1.17;;
48935;SDS011;34745;52.276;10.528;2024-01-30T02:45:28;1.17;;;1.17;;
48935;SDS011;34745;52.276;10.528;2024-01-30T02:47:55;1.20;;;1.20;;
48935;SDS011;34745;52.276;10.528;2024-01-30T02:50:22;1.20;;;1.20;;
48935;SDS011;34745;52.276;10.528;2024-01-30T02:52:49;1.30;;;1.30;;
48935;SDS011;34745;52.276;10.528;2024-01-30T02:55:16;1.20;;;1.20;;
48935;SDS011;34745;52.276;10.528;2024-01-30T02:57:47;1.40;;;1.40;;
48935;SDS011;34745;52.276;10.528;2024-01-30T03:00:15;1.30;;;1.20;;
48935;SDS011;34745;52.276;10.528;2024-01-30T03:02:42;1.20;;;1.20;;
48935;SDS011;34745;52.276;10.528;2024-01-30T03:05:09;1.30;;;1.20;;
48935;SDS011;34745;52.276;10.528;2024-01-30T03:07:36;1.30;;;1.30;;
48935;SDS011;34745;52.276;10.528;2024-01-30T03:10:03;1.20;;;1.20;;
48935;SDS011;34745;52.276;10.528;2024-01-30T03:12:32;1.20;;;1.20;;
48935;SDS011;34745;52.276;10.528;2024-01-30T03:15:00;1.03;;;1.03;;
48935;SDS011;34745;52.276;10.528;2024-01-30T03:17:27;1.43;;;1.33;;
48935;SDS011;34745;52.276;10.528;2024-01-30T03:19:55;1.20;;;1.20;;
48935;SDS011;34745;52.276;10.528;2024-01-30T03:22:22;1.23;;;1.23;;
48935;SDS011;34745;52.276;10.528;2024-01-30T03:24:49;1.30;;;1.30;;
48935;SDS011;34745;52.276;10.528;2024-01-30T03:27:16;1.20;;;1.20;;
48935;SDS011;34745;52.276;10.528;2024-01-30T03:29:43;1.27;;;1.17;;
48935;SDS011;34745;52.276;10.528;2024-01-30T03:32:11;1.30;;;1.20;;
48935;SDS011;34745;52.276;10.528;2024-01-30T03:34:38;1.10;;;1.10;;
48935;SDS011;34745;52.276;10.528;2024-01-30T03:37:06;1.20;;;1.20;;
48935;SDS011;34745;52.276;10.528;2024-01-30T03:39:33;1.37;;;1.27;;
48935;SDS011;34745;52.276;10.528;2024-01-30T03:42:00;1.20;;;1.20;;
48935;SDS011;34745;52.276;10.528;2024-01-30T03:44:26;1.20;;;1.20;;
48935;SDS011;34745;52.276;10.528;2024-01-30T03:46:54;1.17;;;1.13;;
48935;SDS011;34745;52.276;10.528;2024-01-30T03:49:22;1.20;;;1.20;;
48935;SDS011;34745;52.276;10.528;2024-01-30T03:51:49;1.20;;;1.20;;
48935;SDS011;34745;52.276;10.528;2024-01-30T03:54:16;1.27;;;1.27;;
48935;SDS011;34745;52.276;10.528;2024-01-30T03:56:43;1.20;;;1.20;;
48935;SDS011;34745;52.276;10.528;2024-01-30T03:59:10;1.17;;;1.17;;
48935;SDS011;34745;52.276;10.528;2024-01-30T04:01:37;1.40;;;1.30;;
48935;SDS011;34745;52.276;10.528;2024-01-30T04:04:04;1.07;;;1.07;;
48935;SDS011;34745;52.276;10.528;2024-01-30T04:06:33;1.20;;;1.20;;
48935;SDS011;34745;52.276;10.528;2024-01-30T04:09:00;1.17;;;1.17;;
48935;SDS011;34745;52.276;10.528;2024-01-30T04:11:27;1.20;;;1.20;;
48935;SDS011;34745;52.276;10.528;2024-01-30T04:13:54;1.23;;;1.23;;
48935;SDS011;34745;52.276;10.528;2024-01-30T04:16:21;1.40;;;1.30;;
48935;SDS011;34745;52.276;10.528;2024-01-30T04:18:49;1.47;;;1.20;;
48935;SDS011;34745;52.276;10.528;2024-01-30T04:21:17;1.90;;;1.30;;
48935;SDS011;34745;52.276;10.528;2024-01-30T04:23:46;1.13;;;1.13;;
48935;SDS011;34745;52.276;10.528;2024-01-30T04:26:13;1.17;;;1.17;;
48935;SDS011;34745;52.276;10.528;2024-01-30T04:28:41;1.20;;;1.20;;
48935;SDS011;34745;52.276;10.528;2024-01-30T04:31:08;1.30;;;1.30;;
48935;SDS011;34745;52.276;10.528;2024-01-30T04:33:35;1.10;;;1.10;;
48935;SDS011;34745;52.276;10.528;2024-01-30T04:36:02;1.17;;;1.17;;
48935;SDS011;34745;52.276;10.528;2024-01-30T04:38:31;1.10;;;1.10;;
48935;SDS011;34745;52.276;10.528;2024-01-30T04:40:59;1.30;;;1.30;;
48935;SDS011;34745;52.276;10.528;2024-01-30T04:43:26;1.20;;;1.20;;
48935;SDS011;34745;52.276;10.528;2024-01-30T04:45:54;1.30;;;1.20;;
48935;SDS011;34745;52.276;10.528;2024-01-30T04:48:21;1.30;;;1.30;;
48935;SDS011;34745;52.276;10.528;2024-01-30T04:50:48;1.30;;;1.20;;
48935;SDS011;34745;52.276;10.528;2024-01-30T04:53:15;1.20;;;1.20;;
48935;SDS011;34745;52.276;10.528;2024-01-30T04:55:41;1.10;;;1.10;;
48935;SDS011;34745;52.276;10.528;2024-01-30T04:58:10;1.00;;;1.00;;
48935;SDS011;34745;52.276;10.528;2024-01-30T05:00:37;1.30;;;1.20;;
48935;SDS011;34745;52.276;10.528;2024-01-30T05:03:04;1.10;;;1.10;;
48935;SDS011;34745;52.276;10.528;2024-01-30T05:05:31;1.10;;;1.10;;
48935;SDS011;34745;52.276;10.528;2024-01-30T05:07:58;1.20;;;1.20;;
48935;SDS011;34745;52.276;10.528;2024-01-30T05:10:25;1.10;;;1.10;;
48935;SDS011;34745;52.276;10.528;2024-01-30T05:12:53;1.10;;;1.10;;
48935;SDS011;34745;52.276;10.528;2024-01-30T05:15:21;1.30;;;1.30;;
48935;SDS011;34745;52.276;10.528;2024-01-30T05:17:48;1.20;;;1.17;;
48935;SDS011;34745;52.276;10.528;2024-01-30T05:20:16;1.20;;;1.20;;
48935;SDS011;34745;52.276;10.528;2024-01-30T05:22:44;1.00;;;1.00;;
48935;SDS011;34745;52.276;10.528;2024-01-30T05:25:12;1.10;;;1.10;;
48935;SDS011;34745;52.276;10.528;2024-01-30T05:27:39;1.70;;;1.20;;
48935;SDS011;34745;52.276;10.528;2024-01-30T05:30:06;1.30;;;1.30;;
48935;SDS011;34745;52.276;10.528;2024-01-30T05:32:35;1.20;;;1.20;;
48935;SDS011;34745;52.276;10.528;2024-01-30T05:35:03;1.27;;;1.27;;
48935;SDS011;34745;52.276;10.528;2024-01-30T05:37:30;1.20;;;1.20;;
48935;SDS011;34745;52.276;10.528;2024-01-30T05:39:57;1.10;;;1.10;;
48935;SDS011;34745;52.276;10.528;2024-01-30T05:42:25;1.30;;;1.30;;
48935;SDS011;34745;52.276;10.528;2024-01-30T05:44:52;1.20;;;1.20;;
48935;SDS011;34745;52.276;10.528;2024-01-30T05:47:20;1.30;;;1.30;;
48935;SDS011;34745;52.276;10.528;2024-01-30T05:49:48;1.30;;;1.30;;
48935;SDS011;34745;52.276;10.528;2024-01-30T05:52:15;1.10;;;1.10;;
48935;SDS011;34745;52.276;10.528;2024-01-30T05:54:42;1.30;;;1.30;;
48935;SDS011;34745;52.276;10.528;2024-01-30T05:57:10;1.27;;;1.20;;
48935;SDS011;34745;52.276;10.528;2024-01-30T05:59:37;1.00;;;1.00;;
48935;SDS011;34745;52.276;10.528;2024-01-30T06:02:07;1.30;;;1.30;;
48935;SDS011;34745;52.276;10.528;2024-01-30T06:04:34;1.30;;;1.30;;
48935;SDS011;34745;52.276;10.528;2024-01-30T06:07:03;1.10;;;1.10;;
48935;SDS011;34745;52.276;10.528;2024-01-30T06:09:32;1.10;;;1.10;;
48935;SDS011;34745;52.276;10.528;2024-01-30T06:11:59;1.13;;;1.13;;
48935;SDS011;34745;52.276;10.528;2024-01-30T06:14:26;1.20;;;1.20;;
48935;SDS011;34745;52.276;10.528;2024-01-30T06:16:53;1.27;;;1.27;;
48935;SDS011;34745;52.276;10.528;2024-01-30T06:19:20;1.10;;;1.10;;
48935;SDS011;34745;52.276;10.528;2024-01-30T06:21:47;1.33;;;1.30;;
48935;SDS011;34745;52.276;10.528;2024-01-30T06:24:16;1.30;;;1.30;;
48935;SDS011;34745;52.276;10.528;2024-01-30T06:26:43;1.30;;;1.30;;
48935;SDS011;34745;52.276;10.528;2024-01-30T06:29:10;1.40;;;1.40;;
48935;SDS011;34745;52.276;10.528;2024-01-30T06:31:39;1.20;;;1.20;;
48935;SDS011;34745;52.276;10.528;2024-01-30T06:34:06;1.30;;;1.30;;
48935;SDS011;34745;52.276;10.528;2024-01-30T06:36:33;1.20;;;1.20;;
48935;SDS011;34745;52.276;10.528;2024-01-30T06:39:01;1.40;;;1.40;;
48935;SDS011;34745;52.276;10.528;2024-01-30T06:41:29;1.47;;;1.37;;
48935;SDS011;34745;52.276;10.528;2024-01-30T06:43:56;1.40;;;1.30;;
48935;SDS011;34745;52.276;10.528;2024-01-30T06:46:23;1.30;;;1.30;;
48935;SDS011;34745;52.276;10.528;2024-01-30T06:48:51;1.37;;;1.37;;
48935;SDS011;34745;52.276;10.528;2024-01-30T06:51:18;1.53;;;1.40;;
48935;SDS011;34745;52.276;10.528;2024-01-30T06:53:45;2.00;;;1.40;;
48935;SDS011;34745;52.276;10.528;2024-01-30T06:56:12;1.20;;;1.20;;
48935;SDS011;34745;52.276;10.528;2024-01-30T06:58:40;1.50;;;1.40;;
48935;SDS011;34745;52.276;10.528;2024-01-30T07:01:07;1.20;;;1.20;;
48935;SDS011;34745;52.276;10.528;2024-01-30T07:03:34;1.40;;;1.40;;
48935;SDS011;34745;52.276;10.528;2024-01-30T07:06:01;1.30;;;1.30;;
48935;SDS011;34745;52.276;10.528;2024-01-30T07:08:28;1.93;;;1.50;;
48935;SDS011;34745;52.276;10.528;2024-01-30T07:10:55;1.20;;;1.20;;
48935;SDS011;34745;52.276;10.528;2024-01-30T07:13:27;1.27;;;1.27;;
48935;SDS011;34745;52.276;10.528;2024-01-30T07:15:56;1.40;;;1.40;;
48935;SDS011;34745;52.276;10.528;2024-01-30T07:18:23;1.40;;;1.40;;
48935;SDS011;34745;52.276;10.528;2024-01-30T07:20:50;1.40;;;1.40;;
48935;SDS011;34745;52.276;10.528;2024-01-30T07:23:17;1.40;;;1.40;;
48935;SDS011;34745;52.276;10.528;2024-01-30T07:25:44;1.37;;;1.37;;
48935;SDS011;34745;52.276;10.528;2024-01-30T07:28:15;1.30;;;1.30;;
48935;SDS011;34745;52.276;10.528;2024-01-30T07:30:46;1.77;;;1.30;;
48935;SDS011;34745;52.276;10.528;2024-01-30T07:33:15;1.40;;;1.40;;
48935;SDS011;34745;52.276;10.528;2024-01-30T07:35:43;1.50;;;1.40;;
48935;SDS011;34745;52.276;10.528;2024-01-30T07:38:09;1.97;;;1.30;;
48935;SDS011;34745;52.276;10.528;2024-01-30T07:40:37;1.60;;;1.50;;
48935;SDS011;34745;52.276;10.528;2024-01-30T07:43:04;1.40;;;1.40;;
48935;SDS011;34745;52.276;10.528;2024-01-30T07:45:31;1.20;;;1.20;;
48935;SDS011;34745;52.276;10.528;2024-01-30T07:47:59;1.30;;;1.30;;
48935;SDS011;34745;52.276;10.528;2024-01-30T07:50:28;1.20;;;1.20;;
48935;SDS011;34745;52.276;10.528;2024-01-30T07:52:55;1.30;;;1.30;;
48935;SDS011;34745;52.276;10.528;2024-01-30T07:55:23;1.20;;;1.20;;
48935;SDS011;34745;52.276;10.528;2024-01-30T07:57:53;1.10;;;1.10;;
48935;SDS011;34745;52.276;10.528;2024-01-30T08:00:21;1.23;;;1.20;;
48935;SDS011;34745;52.276;10.528;2024-01-30T08:02:48;1.37;;;1.33;;
48935;SDS011;34745;52.276;10.528;2024-01-30T08:05:15;1.20;;;1.20;;
48935;SDS011;34745;52.276;10.528;2024-01-30T08:07:44;1.20;;;1.10;;
48935;SDS011;34745;52.276;10.528;2024-01-30T08:10:14;2.53;;;1.20;;
48935;SDS011;34745;52.276;10.528;2024-01-30T08:12:41;1.50;;;1.47;;
48935;SDS011;34745;52.276;10.528;2024-01-30T08:15:09;1.40;;;1.30;;
48935;SDS011;34745;52.276;10.528;2024-01-30T08:17:36;2.13;;;1.40;;
48935;SDS011;34745;52.276;10.528;2024-01-30T08:20:04;1.30;;;1.30;;
48935;SDS011;34745;52.276;10.528;2024-01-30T08:22:32;2.17;;;2.07;;
48935;SDS011;34745;52.276;10.528;2024-01-30T08:25:00;4.33;;;1.63;;
48935;SDS011;34745;52.276;10.528;2024-01-30T08:27:28;1.40;;;1.40;;
48935;SDS011;34745;52.276;10.528;2024-01-30T08:29:55;1.20;;;1.20;;
48935;SDS011;34745;52.276;10.528;2024-01-30T08:32:22;1.50;;;1.40;;
48935;SDS011;34745;52.276;10.528;2024-01-30T08:34:50;1.23;;;1.13;;
48935;SDS011;34745;52.276;10.528;2024-01-30T08:37:17;1.40;;;1.30;;
48935;SDS011;34745;52.276;10.528;2024-01-30T08:39:44;1.50;;;1.30;;
48935;SDS011;34745;52.276;10.528;2024-01-30T08:42:13;1.30;;;1.30;;
48935;SDS011;34745;52.276;10.528;2024-01-30T08:44:40;2.33;;;1.30;;
48935;SDS011;34745;52.276;10.528;2024-01-30T08:47:07;3.27;;;1.20;;
48935;SDS011;34745;52.276;10.528;2024-01-30T08:49:34;1.30;;;1.30;;
48935;SDS011;34745;52.276;10.528;2024-01-30T08:52:02;1.20;;;1.20;;
48935;SDS011;34745;52.276;10.528;2024-01-30T08:54:29;1.30;;;1.30;;
48935;SDS011;34745;52.276;10.528;2024-01-30T08:56:56;1.40;;;1.40;;
48935;SDS011;34745;52.276;10.528;2024-01-30T08:59:26;1.20;;;1.20;;
48935;SDS011;34745;52.276;10.528;2024-01-30T09:01:53;1.33;;;1.23;;
48935;SDS011;34745;52.276;10.528;2024-01-30T09:04:36;1.00;;;1.00;;
48935;SDS011;34745;52.276;10.528;2024-01-30T09:07:04;1.30;;;1.30;;
48935;SDS011;34745;52.276;10.528;2024-01-30T09:09:37;1.10;;;1.10;;
48935;SDS011;34745;52.276;10.528;2024-01-30T09:12:06;1.23;;;1.20;;
48935;SDS011;34745;52.276;10.528;2024-01-30T09:14:37;1.30;;;1.20;;
48935;SDS011;34745;52.276;10.528;2024-01-30T09:17:05;1.23;;;1.23;;
48935;SDS011;34745;52.276;10.528;2024-01-30T09:19:32;1.10;;;1.10;;
48935;SDS011;34745;52.276;10.528;2024-01-30T09:22:00;2.73;;;1.50;;
48935;SDS011;34745;52.276;10.528;2024-01-30T09:24:27;1.20;;;1.20;;
48935;SDS011;34745;52.276;10.528;2024-01-30T09:26:55;1.40;;;1.30;;
48935;SDS011;34745;52.276;10.528;2024-01-30T09:29:22;1.10;;;1.10;;
48935;SDS011;34745;52.276;10.528;2024-01-30T09:31:52;1.10;;;1.10;;
48935;SDS011;34745;52.276;10.528;2024-01-30T09:34:20;1.07;;;1.07;;
48935;SDS011;34745;52.276;10.528;2024-01-30T09:36:48;1.10;;;1.10;;
48935;SDS011;34745;52.276;10.528;2024-01-30T09:39:15;2.67;;;1.10;;
48935;SDS011;34745;52.276;10.528;2024-01-30T09:41:44;1.00;;;1.00;;
48935;SDS011;34745;52.276;10.528;2024-01-30T09:44:15;1.37;;;1.27;;
48935;SDS011;34745;52.276;10.528;2024-01-30T09:46:43;1.10;;;1.10;;
48935;SDS011;34745;52.276;10.528;2024-01-30T09:49:14;1.10;;;1.10;;
48935;SDS011;34745;52.276;10.528;2024-01-30T09:51:46;1.00;;;1.00;;
48935;SDS011;34745;52.276;10.528;2024-01-30T09:54:15;0.97;;;0.97;;
48935;SDS011;34745;52.276;10.528;2024-01-30T09:56:42;1.00;;;1.00;;
48935;SDS011;34745;52.276;10.528;2024-01-30T09:59:09;1.20;;;1.10;;
48935;SDS011;34745;52.276;10.528;2024-01-30T10:01:37;1.33;;;1.27;;
48935;SDS011;34745;52.276;10.528;2024-01-30T10:04:05;1.00;;;1.00;;
48935;SDS011;34745;52.276;10.528;2024-01-30T10:06:35;1.00;;;1.00;;
48935;SDS011;34745;52.276;10.528;2024-01-30T10:09:03;1.20;;;1.20;;
48935;SDS011;34745;52.276;10.528;2024-01-30T10:11:30;1.27;;;1.23;;
48935;SDS011;34745;52.276;10.528;2024-01-30T10:13:57;1.17;;;1.17;;
48935;SDS011;34745;52.276;10.528;2024-01-30T10:16:24;1.10;;;1.10;;
48935;SDS011;34745;52.276;10.528;2024-01-30T10:18:51;1.70;;;1.10;;
48935;SDS011;34745;52.276;10.528;2024-01-30T10:21:19;1.10;;;1.10;;
48935;SDS011;34745;52.276;10.528;2024-01-30T10:23:47;2.30;;;1.20;;
48935;SDS011;34745;52.276;10.528;2024-01-30T10:26:15;1.00;;;1.00;;
48935;SDS011;34745;52.276;10.528;2024-01-30T10:28:43;1.70;;;1.10;;
48935;SDS011;34745;52.276;10.528;2024-01-30T10:31:10;1.20;;;1.20;;
48935;SDS011;34745;52.276;10.528;2024-01-30T10:33:42;1.10;;;1.10;;
48935;SDS011;34745;52.276;10.528;2024-01-30T10:36:11;1.23;;;1.20;;
48935;SDS011;34745;52.276;10.528;2024-01-30T10:38:45;3.37;;;1.30;;
48935;SDS011;34745;52.276;10.528;2024-01-30T10:41:14;2.40;;;1.10;;
48935;SDS011;34745;52.276;10.528;2024-01-30T10:43:49;1.10;;;1.00;;
48935;SDS011;34745;52.276;10.528;2024-01-30T10:46:26;1.10;;;1.10;;
48935;SDS011;34745;52.276;10.528;2024-01-30T10:48:58;0.90;;;0.90;;
48935;SDS011;34745;52.276;10.528;2024-01-30T10:51:26;1.03;;;1.03;;
48935;SDS011;34745;52.276;10.528;2024-01-30T10:53:55;1.03;;;1.03;;
48935;SDS011;34745;52.276;10.528;2024-01-30T10:56:25;1.13;;;1.00;;
48935;SDS011;34745;52.276;10.528;2024-01-30T10:58:55;0.87;;;0.87;;
48935;SDS011;34745;52.276;10.528;2024-01-30T11:01:22;1.20;;;1.10;;
48935;SDS011;34745;52.276;10.528;2024-01-30T11:03:52;1.03;;;1.00;;
48935;SDS011;34745;52.276;10.528;2024-01-30T11:06:21;1.10;;;1.10;;
48935;SDS011;34745;52.276;10.528;2024-01-30T11:09:00;1.03;;;1.03;;
48935;SDS011;34745;52.276;10.528;2024-01-30T11:11:31;1.20;;;1.10;;
48935;SDS011;34745;52.276;10.528;2024-01-30T11:14:14;1.10;;;1.00;;
48935;SDS011;34745;52.276;10.528;2024-01-30T11:16:41;0.90;;;0.90;;
48935;SDS011;34745;52.276;10.528;2024-01-30T11:19:12;0.90;;;0.90;;
48935;SDS011;34745;52.276;10.528;2024-01-30T11:21:41;0.90;;;0.90;;
48935;SDS011;34745;52.276;10.528;2024-01-30T11:24:08;0.80;;;0.80;;
48935;SDS011;34745;52.276;10.528;2024-01-30T11:26:36;0.90;;;0.90;;
48935;SDS011;34745;52.276;10.528;2024-01-30T11:29:06;0.70;;;0.70;;
48935;SDS011;34745;52.276;10.528;2024-01-30T11:31:34;0.97;;;0.73;;
48935;SDS011;34745;52.276;10.528;2024-01-30T11:34:01;0.80;;;0.80;;
48935;SDS011;34745;52.276;10.528;2024-01-30T11:36:29;0.80;;;0.80;;
48935;SDS011;34745;52.276;10.528;2024-01-30T11:39:01;0.93;;;0.93;;
48935;SDS011;34745;52.276;10.528;2024-01-30T11:41:28;2.13;;;1.07;;
48935;SDS011;34745;52.276;10.528;2024-01-30T11:43:58;0.87;;;0.80;;
48935;SDS011;34745;52.276;10.528;2024-01-30T11:46:24;0.90;;;0.90;;
48935;SDS011;34745;52.276;10.528;2024-01-30T11:48:52;0.70;;;0.70;;
48935;SDS011;34745;52.276;10.528;2024-01-30T11:51:19;0.80;;;0.80;;
48935;SDS011;34745;52.276;10.528;2024-01-30T11:53:49;0.80;;;0.80;;
48935;SDS011;34745;52.276;10.528;2024-01-30T11:56:16;0.90;;;0.90;;
48935;SDS011;34745;52.276;10.528;2024-01-30T11:58:43;0.90;;;0.90;;
48935;SDS011;34745;52.276;10.528;2024-01-30T12:01:11;0.80;;;0.80;;
48935;SDS011;34745;52.276;10.528;2024-01-30T12:03:39;1.53;;;0.80;;
48935;SDS011;34745;52.276;10.528;2024-01-30T12:06:06;0.73;;;0.73;;
48935;SDS011;34745;52.276;10.528;2024-01-30T12:08:33;0.80;;;0.80;;
48935;SDS011;34745;52.276;10.528;2024-01-30T12:11:00;0.80;;;0.80;;
48935;SDS011;34745;52.276;10.528;2024-01-30T12:13:32;0.83;;;0.83;;
48935;SDS011;34745;52.276;10.528;2024-01-30T12:15:59;0.80;;;0.80;;
48935;SDS011;34745;52.276;10.528;2024-01-30T12:18:29;0.70;;;0.70;;
48935;SDS011;34745;52.276;10.528;2024-01-30T12:20:57;2.50;;;1.00;;
48935;SDS011;34745;52.276;10.528;2024-01-30T12:23:26;0.90;;;0.90;;
48935;SDS011;34745;52.276;10.528;2024-01-30T12:25:53;0.73;;;0.73;;
48935;SDS011;34745;52.276;10.528;2024-01-30T12:28:20;0.70;;;0.70;;
48935;SDS011;34745;52.276;10.528;2024-01-30T12:30:47;0.80;;;0.80;;
48935;SDS011;34745;52.276;10.528;2024-01-30T12:33:16;0.80;;;0.80;;
48935;SDS011;34745;52.276;10.528;2024-01-30T12:35:49;0.73;;;0.73;;
48935;SDS011;34745;52.276;10.528;2024-01-30T12:38:28;0.70;;;0.70;;
48935;SDS011;34745;52.276;10.528;2024-01-30T12:40:55;0.90;;;0.90;;
48935;SDS011;34745;52.276;10.528;2024-01-30T12:43:23;0.70;;;0.70;;
48935;SDS011;34745;52.276;10.528;2024-01-30T12:46:03;0.90;;;0.90;;
48935;SDS011;34745;52.276;10.528;2024-01-30T12:48:31;0.90;;;0.90;;
48935;SDS011;34745;52.276;10.528;2024-01-30T12:50:59;0.80;;;0.80;;
48935;SDS011;34745;52.276;10.528;2024-01-30T12:53:27;0.70;;;0.70;;
48935;SDS011;34745;52.276;10.528;2024-01-30T12:55:54;0.80;;;0.80;;
48935;SDS011;34745;52.276;10.528;2024-01-30T12:58:21;1.60;;;0.80;;
48935;SDS011;34745;52.276;10.528;2024-01-30T13:00:48;0.80;;;0.80;;
48935;SDS011;34745;52.276;10.528;2024-01-30T13:03:15;0.90;;;0.90;;
48935;SDS011;34745;52.276;10.528;2024-01-30T13:05:43;0.80;;;0.80;;
48935;SDS011;34745;52.276;10.528;2024-01-30T13:08:11;0.80;;;0.80;;
48935;SDS011;34745;52.276;10.528;2024-01-30T13:10:38;0.80;;;0.80;;
48935;SDS011;34745;52.276;10.528;2024-01-30T13:13:05;0.60;;;0.60;;
48935;SDS011;34745;52.276;10.528;2024-01-30T13:15:40;0.70;;;0.70;;
48935;SDS011;34745;52.276;10.528;2024-01-30T13:18:06;1.10;;;1.00;;
48935;SDS011;34745;52.276;10.528;2024-01-30T13:20:34;0.80;;;0.80;;
48935;SDS011;34745;52.276;10.528;2024-01-30T13:23:01;0.70;;;0.70;;
48935;SDS011;34745;52.276;10.528;2024-01-30T13:25:29;0.63;;;0.63;;
48935;SDS011;34745;52.276;10.528;2024-01-30T13:27:56;0.90;;;0.90;;
48935;SDS011;34745;52.276;10.528;2024-01-30T13:30:24;0.80;;;0.80;;
48935;SDS011;34745;52.276;10.528;2024-01-30T13:32:51;1.57;;;0.70;;
48935;SDS011;34745;52.276;10.528;2024-01-30T13:35:18;0.73;;;0.73;;
48935;SDS011;34745;52.276;10.528;2024-01-30T13:37:46;0.70;;;0.70;;
48935;SDS011;34745;52.276;10.528;2024-01-30T13:40:15;0.60;;;0.60;;
48935;SDS011;34745;52.276;10.528;2024-01-30T13:42:44;1.43;;;0.70;;
48935;SDS011;34745;52.276;10.528;2024-01-30T13:45:11;2.03;;;0.80;;
48935;SDS011;34745;52.276;10.528;2024-01-30T13:47:38;1.43;;;0.80;;
48935;SDS011;34745;52.276;10.528;2024-01-30T13:50:06;0.80;;;0.80;;
48935;SDS011;34745;52.276;10.528;2024-01-30T13:52:34;0.80;;;0.80;;
48935;SDS011;34745;52.276;10.528;2024-01-30T13:55:10;0.80;;;0.80;;
48935;SDS011;34745;52.276;10.528;2024-01-30T13:57:37;0.80;;;0.80;;
48935;SDS011;34745;52.276;10.528;2024-01-30T14:00:06;0.87;;;0.87;;
48935;SDS011;34745;52.276;10.528;2024-01-30T14:02:35;0.80;;;0.80;;
48935;SDS011;34745;52.276;10.528;2024-01-30T14:05:02;1.17;;;0.80;;
48935;SDS011;34745;52.276;10.528;2024-01-30T14:07:32;0.80;;;0.80;;
48935;SDS011;34745;52.276;10.528;2024-01-30T14:09:59;1.03;;;0.90;;
48935;SDS011;34745;52.276;10.528;2024-01-30T14:12:26;0.80;;;0.80;;
48935;SDS011;34745;52.276;10.528;2024-01-30T14:14:54;0.70;;;0.70;;
48935;SDS011;34745;52.276;10.528;2024-01-30T14:17:22;0.87;;;0.87;;
48935;SDS011;34745;52.276;10.528;2024-01-30T14:19:49;0.80;;;0.80;;
48935;SDS011;34745;52.276;10.528;2024-01-30T14:22:16;0.90;;;0.90;;
48935;SDS011;34745;52.276;10.528;2024-01-30T14:24:43;0.83;;;0.83;;
48935;SDS011;34745;52.276;10.528;2024-01-30T14:27:12;0.80;;;0.80;;
48935;SDS011;34745;52.276;10.528;2024-01-30T14:29:40;0.80;;;0.80;;
48935;SDS011;34745;52.276;10.528;2024-01-30T14:32:08;0.80;;;0.80;;
48935;SDS011;34745;52.276;10.528;2024-01-30T14:34:37;0.70;;;0.70;;
48935;SDS011;34745;52.276;10.528;2024-01-30T14:37:04;0.80;;;0.80;;